Terminal Aerodrome Forecast
Issued by NWS Cleveland, OH

Home | Current Version | Previous Version | Text Only | Print | Product List | Glossary Off
Versions: 1 2 3 4 5 6 7 8 9 10 11 12 13 14 15 16 17 18 19

000
FTUS41 KCLE 250800 AAA
TAFERI
TAF AMD
KERI 250807Z 2508/2606 15015G25KT P6SM SKC
     FM251000 14015G25KT P6SM SCT060 BKN120
     FM251200 15015G25KT P6SM SCT035 OVC060 WS015/18050KT
      TEMPO 2512/2513 4SM -SHRA BR OVC035
     FM251300 18018G28KT 5SM -SHRA BR OVC015
     FM251700 21022G32KT 6SM -SHRA OVC015
     FM252000 24015G25KT P6SM BKN035
     FM260200 20010KT P6SM SCT250=

USA.gov is the U.S. government's official web portal to all federal, state and local government web resources and services.